sensor_id;sensor_type;location;lat;lon;timestamp;pressure;altitude;pressure_sealevel;temperature;humidity
38880;BME280;25887;30.194;-97.880;2023-02-26T00:01:25;98914.97;;;20.62;47.40
38880;BME280;25887;30.194;-97.880;2023-02-26T00:04:03;98912.34;;;20.63;47.38
38880;BME280;25887;30.194;-97.880;2023-02-26T00:06:36;98910.59;;;20.62;47.50
38880;BME280;25887;30.194;-97.880;2023-02-26T00:09:03;98911.50;;;20.61;47.50
38880;BME280;25887;30.194;-97.880;2023-02-26T00:11:30;98914.97;;;20.62;47.31
38880;BME280;25887;30.194;-97.880;2023-02-26T00:13:56;98910.66;;;20.61;47.32
38880;BME280;25887;30.194;-97.880;2023-02-26T00:18:52;98914.13;;;20.61;47.21
38880;BME280;25887;30.194;-97.880;2023-02-26T00:21:19;98908.06;;;20.61;47.23
38880;BME280;25887;30.194;-97.880;2023-02-26T00:23:45;98903.78;;;20.58;47.24
38880;BME280;25887;30.194;-97.880;2023-02-26T00:26:11;98897.72;;;20.57;47.46
38880;BME280;25887;30.194;-97.880;2023-02-26T00:28:37;98892.63;;;20.54;47.19
38880;BME280;25887;30.194;-97.880;2023-02-26T00:31:03;98889.19;;;20.52;47.22
38880;BME280;25887;30.194;-97.880;2023-02-26T00:33:29;98892.75;;;20.50;47.35
38880;BME280;25887;30.194;-97.880;2023-02-26T00:35:56;98893.66;;;20.49;47.28
38880;BME280;25887;30.194;-97.880;2023-02-26T00:38:26;98890.13;;;20.50;47.34
38880;BME280;25887;30.194;-97.880;2023-02-26T00:40:58;98887.59;;;20.48;47.36
38880;BME280;25887;30.194;-97.880;2023-02-26T00:43:24;98885.03;;;20.47;47.24
38880;BME280;25887;30.194;-97.880;2023-02-26T00:46:06;98885.97;;;20.43;47.37
38880;BME280;25887;30.194;-97.880;2023-02-26T00:53:40;98884.53;;;20.34;47.39
38880;BME280;25887;30.194;-97.880;2023-02-26T00:56:08;98876.75;;;20.33;47.33
38880;BME280;25887;30.194;-97.880;2023-02-26T00:58:34;98872.44;;;20.31;47.40
38880;BME280;25887;30.194;-97.880;2023-02-26T01:01:00;98880.28;;;20.30;47.36
38880;BME280;25887;30.194;-97.880;2023-02-26T01:03:26;98874.25;;;20.28;47.32
38880;BME280;25887;30.194;-97.880;2023-02-26T01:05:52;98869.03;;;20.28;47.33
38880;BME280;25887;30.194;-97.880;2023-02-26T01:08:40;98864.78;;;20.25;47.36
38880;BME280;25887;30.194;-97.880;2023-02-26T01:11:04;98872.56;;;20.27;47.41
38880;BME280;25887;30.194;-97.880;2023-02-26T01:13:49;98875.16;;;20.27;47.32
38880;BME280;25887;30.194;-97.880;2023-02-26T01:16:16;98880.38;;;20.27;47.27
38880;BME280;25887;30.194;-97.880;2023-02-26T01:18:47;98883.00;;;20.27;47.20
38880;BME280;25887;30.194;-97.880;2023-02-26T01:21:18;98877.78;;;20.27;47.22
38880;BME280;25887;30.194;-97.880;2023-02-26T01:24:05;98879.59;;;20.25;47.26
38880;BME280;25887;30.194;-97.880;2023-02-26T01:26:33;98883.19;;;20.21;47.22
38880;BME280;25887;30.194;-97.880;2023-02-26T01:28:59;98885.00;;;20.19;47.34
38880;BME280;25887;30.194;-97.880;2023-02-26T01:34:28;98885.28;;;20.10;47.31
38880;BME280;25887;30.194;-97.880;2023-02-26T01:42:26;98896.91;;;19.98;47.59
38880;BME280;25887;30.194;-97.880;2023-02-26T01:44:58;98894.38;;;19.96;47.50
38880;BME280;25887;30.194;-97.880;2023-02-26T01:47:28;98901.38;;;19.94;47.61
38880;BME280;25887;30.194;-97.880;2023-02-26T01:49:55;98905.75;;;19.94;47.51
38880;BME280;25887;30.194;-97.880;2023-02-26T01:55:05;98904.06;;;19.93;47.54
38880;BME280;25887;30.194;-97.880;2023-02-26T01:57:31;98904.97;;;19.90;47.39
38880;BME280;25887;30.194;-97.880;2023-02-26T01:59:56;98901.63;;;19.87;47.58
38880;BME280;25887;30.194;-97.880;2023-02-26T02:02:31;98894.72;;;19.84;47.63
38880;BME280;25887;30.194;-97.880;2023-02-26T02:04:57;98892.16;;;19.83;47.66
38880;BME280;25887;30.194;-97.880;2023-02-26T02:07:27;98882.72;;;19.79;47.70
38880;BME280;25887;30.194;-97.880;2023-02-26T02:09:54;98901.03;;;19.77;47.59
38880;BME280;25887;30.194;-97.880;2023-02-26T02:17:24;98909.72;;;19.76;47.62
38880;BME280;25887;30.194;-97.880;2023-02-26T02:30:32;98908.06;;;19.73;47.55
38880;BME280;25887;30.194;-97.880;2023-02-26T02:32:57;98909.78;;;19.74;47.49
38880;BME280;25887;30.194;-97.880;2023-02-26T02:35:31;98905.41;;;19.75;47.52
38880;BME280;25887;30.194;-97.880;2023-02-26T02:38:04;98906.31;;;19.74;47.47
38880;BME280;25887;30.194;-97.880;2023-02-26T02:40:47;98903.75;;;19.72;47.50
38880;BME280;25887;30.194;-97.880;2023-02-26T02:43:16;98910.72;;;19.72;47.49
38880;BME280;25887;30.194;-97.880;2023-02-26T02:45:47;98914.25;;;19.71;47.55
38880;BME280;25887;30.194;-97.880;2023-02-26T02:49:06;98909.94;;;19.70;47.42
38880;BME280;25887;30.194;-97.880;2023-02-26T02:55:02;98922.97;;;19.70;47.45
38880;BME280;25887;30.194;-97.880;2023-02-26T02:57:07;98922.09;;;19.69;47.49
38880;BME280;25887;30.194;-97.880;2023-02-26T02:59:50;98919.53;;;19.68;47.46
38880;BME280;25887;30.194;-97.880;2023-02-26T03:02:21;98923.94;;;19.66;47.51
38880;BME280;25887;30.194;-97.880;2023-02-26T03:04:48;98915.34;;;19.62;47.53
38880;BME280;25887;30.194;-97.880;2023-02-26T03:07:14;98917.97;;;19.61;47.51
38880;BME280;25887;30.194;-97.880;2023-02-26T03:10:00;98922.44;;;19.57;47.50
38880;BME280;25887;30.194;-97.880;2023-02-26T03:12:31;98925.91;;;19.56;47.47
38880;BME280;25887;30.194;-97.880;2023-02-26T03:14:57;98925.97;;;19.55;47.49
38880;BME280;25887;30.194;-97.880;2023-02-26T03:22:52;98933.09;;;19.48;47.56
38880;BME280;25887;30.194;-97.880;2023-02-26T03:28:09;98929.69;;;19.44;47.60
38880;BME280;25887;30.194;-97.880;2023-02-26T03:30:42;98932.28;;;19.44;47.54
38880;BME280;25887;30.194;-97.880;2023-02-26T03:33:21;98929.75;;;19.43;47.57
38880;BME280;25887;30.194;-97.880;2023-02-26T03:38:35;98919.47;;;19.37;47.67
38880;BME280;25887;30.194;-97.880;2023-02-26T03:41:03;98910.00;;;19.34;47.64
38880;BME280;25887;30.194;-97.880;2023-02-26T03:46:33;98915.31;;;19.30;47.78
38880;BME280;25887;30.194;-97.880;2023-02-26T03:49:02;98924.03;;;19.30;47.75
38880;BME280;25887;30.194;-97.880;2023-02-26T03:51:29;98919.66;;;19.31;47.61
38880;BME280;25887;30.194;-97.880;2023-02-26T03:54:18;98916.19;;;19.30;47.65
38880;BME280;25887;30.194;-97.880;2023-02-26T03:56:45;98915.38;;;19.28;47.73
38880;BME280;25887;30.194;-97.880;2023-02-26T03:59:12;98930.19;;;19.26;47.68
38880;BME280;25887;30.194;-97.880;2023-02-26T04:02:04;98925.03;;;19.25;47.62
38880;BME280;25887;30.194;-97.880;2023-02-26T04:04:56;98927.69;;;19.23;47.63
38880;BME280;25887;30.194;-97.880;2023-02-26T04:07:20;98929.44;;;19.23;47.58
38880;BME280;25887;30.194;-97.880;2023-02-26T04:09:47;98936.38;;;19.22;47.68
38880;BME280;25887;30.194;-97.880;2023-02-26T04:12:13;98937.25;;;19.21;47.68
38880;BME280;25887;30.194;-97.880;2023-02-26T04:14:39;98928.63;;;19.19;47.68
38880;BME280;25887;30.194;-97.880;2023-02-26T04:17:05;98924.31;;;19.18;47.73
38880;BME280;25887;30.194;-97.880;2023-02-26T04:19:31;98929.63;;;19.15;47.84
38880;BME280;25887;30.194;-97.880;2023-02-26T04:22:17;98932.25;;;19.13;47.75
38880;BME280;25887;30.194;-97.880;2023-02-26T04:24:44;98929.69;;;19.12;47.68
38880;BME280;25887;30.194;-97.880;2023-02-26T04:27:09;98930.59;;;19.11;47.74
38880;BME280;25887;30.194;-97.880;2023-02-26T04:29:35;98918.50;;;19.08;47.70
38880;BME280;25887;30.194;-97.880;2023-02-26T04:32:01;98917.66;;;19.06;47.78
38880;BME280;25887;30.194;-97.880;2023-02-26T04:34:35;98917.72;;;19.05;47.66
38880;BME280;25887;30.194;-97.880;2023-02-26T04:40:36;98923.06;;;18.99;47.86
38880;BME280;25887;30.194;-97.880;2023-02-26T04:43:02;98920.50;;;18.97;47.75
38880;BME280;25887;30.194;-97.880;2023-02-26T04:45:28;98911.91;;;18.95;47.80
38880;BME280;25887;30.194;-97.880;2023-02-26T04:47:54;98916.34;;;18.91;47.86
38880;BME280;25887;30.194;-97.880;2023-02-26T04:50:19;98923.25;;;18.92;47.89
38880;BME280;25887;30.194;-97.880;2023-02-26T04:52:45;98921.56;;;18.90;47.82
38880;BME280;25887;30.194;-97.880;2023-02-26T04:55:11;98920.72;;;18.89;47.92
38880;BME280;25887;30.194;-97.880;2023-02-26T04:57:37;98915.59;;;18.86;47.86
38880;BME280;25887;30.194;-97.880;2023-02-26T05:00:03;98916.53;;;18.84;47.96
38880;BME280;25887;30.194;-97.880;2023-02-26T05:02:33;98917.47;;;18.80;47.87
38880;BME280;25887;30.194;-97.880;2023-02-26T05:04:59;98927.03;;;18.79;47.87
38880;BME280;25887;30.194;-97.880;2023-02-26T05:07:52;98927.03;;;18.79;48.04
38880;BME280;25887;30.194;-97.880;2023-02-26T05:10:21;98938.31;;;18.80;47.89
38880;BME280;25887;30.194;-97.880;2023-02-26T05:12:47;98937.47;;;18.79;47.82
38880;BME280;25887;30.194;-97.880;2023-02-26T05:15:13;98938.34;;;18.78;47.83
38880;BME280;25887;30.194;-97.880;2023-02-26T05:17:38;98921.88;;;18.78;47.96
38880;BME280;25887;30.194;-97.880;2023-02-26T05:20:04;98933.19;;;18.77;47.91
38880;BME280;25887;30.194;-97.880;2023-02-26T05:25:29;98919.47;;;18.70;48.02
38880;BME280;25887;30.194;-97.880;2023-02-26T05:27:55;98910.84;;;18.68;48.16
38880;BME280;25887;30.194;-97.880;2023-02-26T05:30:41;98922.13;;;18.67;48.12
38880;BME280;25887;30.194;-97.880;2023-02-26T05:33:23;98921.25;;;18.68;48.15
38880;BME280;25887;30.194;-97.880;2023-02-26T05:35:51;98913.44;;;18.68;47.99
38880;BME280;25887;30.194;-97.880;2023-02-26T05:38:17;98922.13;;;18.67;48.20
38880;BME280;25887;30.194;-97.880;2023-02-26T05:40:56;98913.47;;;18.65;48.11
38880;BME280;25887;30.194;-97.880;2023-02-26T05:43:23;98909.25;;;18.61;48.16
38880;BME280;25887;30.194;-97.880;2023-02-26T05:45:49;98915.34;;;18.58;48.21
38880;BME280;25887;30.194;-97.880;2023-02-26T05:48:15;98912.00;;;18.55;48.19
38880;BME280;25887;30.194;-97.880;2023-02-26T05:50:41;98919.84;;;18.52;48.14
38880;BME280;25887;30.194;-97.880;2023-02-26T05:53:07;98911.19;;;18.51;48.42
38880;BME280;25887;30.194;-97.880;2023-02-26T05:55:33;98908.63;;;18.50;48.39
38880;BME280;25887;30.194;-97.880;2023-02-26T05:57:58;98908.72;;;18.47;48.39
38880;BME280;25887;30.194;-97.880;2023-02-26T06:00:24;98906.16;;;18.44;48.44
38880;BME280;25887;30.194;-97.880;2023-02-26T06:02:50;98903.56;;;18.44;48.40
38880;BME280;25887;30.194;-97.880;2023-02-26T06:05:16;98897.50;;;18.43;48.38
38880;BME280;25887;30.194;-97.880;2023-02-26T06:07:42;98899.34;;;18.40;48.24
38880;BME280;25887;30.194;-97.880;2023-02-26T06:10:08;98898.47;;;18.39;48.36
38880;BME280;25887;30.194;-97.880;2023-02-26T06:12:34;98895.88;;;18.39;48.34
38880;BME280;25887;30.194;-97.880;2023-02-26T06:15:00;98897.59;;;18.40;48.48
38880;BME280;25887;30.194;-97.880;2023-02-26T06:17:25;98892.44;;;18.38;48.40
38880;BME280;25887;30.194;-97.880;2023-02-26T06:19:52;98893.31;;;18.37;48.26
38880;BME280;25887;30.194;-97.880;2023-02-26T06:25:17;98888.13;;;18.37;48.38
38880;BME280;25887;30.194;-97.880;2023-02-26T06:27:43;98883.72;;;18.40;48.39
38880;BME280;25887;30.194;-97.880;2023-02-26T06:30:09;98883.72;;;18.40;48.19
38880;BME280;25887;30.194;-97.880;2023-02-26T06:32:35;98893.25;;;18.41;48.19
38880;BME280;25887;30.194;-97.880;2023-02-26T06:35:01;98880.22;;;18.41;48.37
38880;BME280;25887;30.194;-97.880;2023-02-26T06:37:27;98870.69;;;18.41;48.20
38880;BME280;25887;30.194;-97.880;2023-02-26T06:40:11;98873.28;;;18.41;48.40
38880;BME280;25887;30.194;-97.880;2023-02-26T06:42:37;98871.53;;;18.42;48.39
38880;BME280;25887;30.194;-97.880;2023-02-26T06:45:03;98869.78;;;18.42;48.19
38880;BME280;25887;30.194;-97.880;2023-02-26T06:47:29;98871.50;;;18.43;48.25
38880;BME280;25887;30.194;-97.880;2023-02-26T06:49:55;98872.34;;;18.44;48.29
38880;BME280;25887;30.194;-97.880;2023-02-26T06:52:21;98881.84;;;18.46;48.32
38880;BME280;25887;30.194;-97.880;2023-02-26T06:54:47;98871.44;;;18.46;48.13
38880;BME280;25887;30.194;-97.880;2023-02-26T06:57:12;98868.84;;;18.46;48.20
38880;BME280;25887;30.194;-97.880;2023-02-26T06:59:38;98869.75;;;18.44;48.32
38880;BME280;25887;30.194;-97.880;2023-02-26T07:02:04;98858.53;;;18.42;48.34
38880;BME280;25887;30.194;-97.880;2023-02-26T07:04:30;98865.47;;;18.41;48.14
38880;BME280;25887;30.194;-97.880;2023-02-26T07:06:55;98859.41;;;18.41;48.36
38880;BME280;25887;30.194;-97.880;2023-02-26T07:09:21;98856.81;;;18.41;48.17
38880;BME280;25887;30.194;-97.880;2023-02-26T07:11:47;98858.53;;;18.42;48.15
38880;BME280;25887;30.194;-97.880;2023-02-26T07:14:13;98849.81;;;18.43;48.33
38880;BME280;25887;30.194;-97.880;2023-02-26T07:16:39;98855.88;;;18.43;48.30
38880;BME280;25887;30.194;-97.880;2023-02-26T07:19:05;98853.25;;;18.45;48.28
38880;BME280;25887;30.194;-97.880;2023-02-26T07:21:31;98844.63;;;18.43;48.16
38880;BME280;25887;30.194;-97.880;2023-02-26T07:23:56;98836.91;;;18.40;48.39
38880;BME280;25887;30.194;-97.880;2023-02-26T07:26:22;98850.84;;;18.37;48.32
38880;BME280;25887;30.194;-97.880;2023-02-26T07:29:20;98839.66;;;18.33;48.46
38880;BME280;25887;30.194;-97.880;2023-02-26T07:31:46;98842.34;;;18.30;48.49
38880;BME280;25887;30.194;-97.880;2023-02-26T07:34:17;98833.72;;;18.27;48.51
38880;BME280;25887;30.194;-97.880;2023-02-26T07:37:02;98837.25;;;18.24;48.62
38880;BME280;25887;30.194;-97.880;2023-02-26T07:39:28;98827.81;;;18.20;48.64
38880;BME280;25887;30.194;-97.880;2023-02-26T07:41:54;98840.81;;;18.22;48.60
38880;BME280;25887;30.194;-97.880;2023-02-26T07:44:20;98843.41;;;18.22;48.61
38880;BME280;25887;30.194;-97.880;2023-02-26T07:46:46;98842.50;;;18.23;48.69
38880;BME280;25887;30.194;-97.880;2023-02-26T07:49:11;98842.50;;;18.23;48.64
38880;BME280;25887;30.194;-97.880;2023-02-26T07:51:37;98854.66;;;18.22;48.54
38880;BME280;25887;30.194;-97.880;2023-02-26T07:54:23;98843.41;;;18.22;48.60
38880;BME280;25887;30.194;-97.880;2023-02-26T07:56:57;98839.91;;;18.23;48.50
38880;BME280;25887;30.194;-97.880;2023-02-26T07:59:22;98829.50;;;18.23;48.59
38880;BME280;25887;30.194;-97.880;2023-02-26T08:01:48;98828.66;;;18.22;48.65
38880;BME280;25887;30.194;-97.880;2023-02-26T08:04:14;98824.34;;;18.21;48.77
38880;BME280;25887;30.194;-97.880;2023-02-26T08:06:40;98826.06;;;18.22;48.73
38880;BME280;25887;30.194;-97.880;2023-02-26T08:09:06;98817.44;;;18.19;49.04
38880;BME280;25887;30.194;-97.880;2023-02-26T08:11:31;98822.75;;;18.16;48.91
38880;BME280;25887;30.194;-97.880;2023-02-26T08:14:01;98806.28;;;18.15;49.03
38880;BME280;25887;30.194;-97.880;2023-02-26T08:16:27;98813.25;;;18.13;48.86
38880;BME280;25887;30.194;-97.880;2023-02-26T08:18:52;98810.63;;;18.13;48.90
38880;BME280;25887;30.194;-97.880;2023-02-26T08:21:18;98814.09;;;18.15;49.09
38880;BME280;25887;30.194;-97.880;2023-02-26T08:23:56;98809.72;;;18.16;48.92
38880;BME280;25887;30.194;-97.880;2023-02-26T08:26:22;98820.94;;;18.18;48.88
38880;BME280;25887;30.194;-97.880;2023-02-26T08:28:59;98807.09;;;18.17;48.95
38880;BME280;25887;30.194;-97.880;2023-02-26T08:31:25;98811.44;;;18.17;49.21
38880;BME280;25887;30.194;-97.880;2023-02-26T08:33:52;98819.19;;;18.18;49.12
38880;BME280;25887;30.194;-97.880;2023-02-26T08:36:18;98814.00;;;18.18;49.22
38880;BME280;25887;30.194;-97.880;2023-02-26T08:39:00;98804.53;;;18.16;49.28
38880;BME280;25887;30.194;-97.880;2023-02-26T08:41:27;98812.34;;;18.16;48.93
38880;BME280;25887;30.194;-97.880;2023-02-26T08:44:03;98801.94;;;18.16;49.04
38880;BME280;25887;30.194;-97.880;2023-02-26T08:46:29;98790.69;;;18.15;49.04
38880;BME280;25887;30.194;-97.880;2023-02-26T08:48:55;98788.09;;;18.15;49.09
38880;BME280;25887;30.194;-97.880;2023-02-26T08:51:20;98779.44;;;18.15;49.20
38880;BME280;25887;30.194;-97.880;2023-02-26T08:53:46;98782.88;;;18.15;49.28
38880;BME280;25887;30.194;-97.880;2023-02-26T08:56:32;98773.44;;;18.11;49.09
38880;BME280;25887;30.194;-97.880;2023-02-26T08:58:58;98769.97;;;18.10;49.37
38880;BME280;25887;30.194;-97.880;2023-02-26T09:01:24;98770.03;;;18.09;49.25
38880;BME280;25887;30.194;-97.880;2023-02-26T09:03:49;98766.56;;;18.08;49.48
38880;BME280;25887;30.194;-97.880;2023-02-26T09:06:15;98760.50;;;18.08;49.31
38880;BME280;25887;30.194;-97.880;2023-02-26T09:08:41;98757.97;;;18.06;49.27
38880;BME280;25887;30.194;-97.880;2023-02-26T09:11:07;98756.25;;;18.04;49.27
38880;BME280;25887;30.194;-97.880;2023-02-26T09:13:34;98752.00;;;18.01;49.37
38880;BME280;25887;30.194;-97.880;2023-02-26T09:18:46;98738.09;;;18.02;49.51
38880;BME280;25887;30.194;-97.880;2023-02-26T09:21:18;98737.28;;;18.00;49.32
38880;BME280;25887;30.194;-97.880;2023-02-26T09:23:44;98733.84;;;18.00;49.60
38880;BME280;25887;30.194;-97.880;2023-02-26T09:26:10;98731.25;;;18.00;49.62
38880;BME280;25887;30.194;-97.880;2023-02-26T09:28:48;98718.34;;;17.95;49.67
38880;BME280;25887;30.194;-97.880;2023-02-26T09:31:14;98716.69;;;17.93;49.74
38880;BME280;25887;30.194;-97.880;2023-02-26T09:33:40;98710.69;;;17.89;49.78
38880;BME280;25887;30.194;-97.880;2023-02-26T09:36:45;98703.84;;;17.87;49.71
38880;BME280;25887;30.194;-97.880;2023-02-26T09:39:11;98697.03;;;17.81;49.66
38880;BME280;25887;30.194;-97.880;2023-02-26T09:41:39;98708.28;;;17.81;49.79
38880;BME280;25887;30.194;-97.880;2023-02-26T09:44:24;98700.47;;;17.81;49.75
38880;BME280;25887;30.194;-97.880;2023-02-26T09:52:26;98701.59;;;17.71;49.94
38880;BME280;25887;30.194;-97.880;2023-02-26T09:57:42;98690.50;;;17.63;50.11
38880;BME280;25887;30.194;-97.880;2023-02-26T10:03:04;98698.28;;;17.63;50.03
38880;BME280;25887;30.194;-97.880;2023-02-26T10:05:38;98694.84;;;17.63;50.15
38880;BME280;25887;30.194;-97.880;2023-02-26T10:08:10;98688.78;;;17.62;50.13
38880;BME280;25887;30.194;-97.880;2023-02-26T10:16:00;98682.88;;;17.55;50.56
38880;BME280;25887;30.194;-97.880;2023-02-26T10:18:50;98672.63;;;17.51;50.44
38880;BME280;25887;30.194;-97.880;2023-02-26T10:21:57;98671.72;;;17.50;50.34
38880;BME280;25887;30.194;-97.880;2023-02-26T10:24:27;98673.47;;;17.51;50.32
38880;BME280;25887;30.194;-97.880;2023-02-26T10:26:57;98666.53;;;17.50;50.63
38880;BME280;25887;30.194;-97.880;2023-02-26T10:29:27;98665.69;;;17.50;50.53
38880;BME280;25887;30.194;-97.880;2023-02-26T10:34:46;98677.06;;;17.46;50.52
38880;BME280;25887;30.194;-97.880;2023-02-26T10:38:22;98662.44;;;17.40;50.66
38880;BME280;25887;30.194;-97.880;2023-02-26T10:40:23;98672.06;;;17.37;50.59
38880;BME280;25887;30.194;-97.880;2023-02-26T10:45:29;98676.44;;;17.35;50.60
38880;BME280;25887;30.194;-97.880;2023-02-26T10:50:33;98647.94;;;17.32;50.78
38880;BME280;25887;30.194;-97.880;2023-02-26T10:52:59;98636.69;;;17.31;50.65
38880;BME280;25887;30.194;-97.880;2023-02-26T10:58:10;98640.09;;;17.33;50.59
38880;BME280;25887;30.194;-97.880;2023-02-26T11:00:41;98646.16;;;17.34;50.93
38880;BME280;25887;30.194;-97.880;2023-02-26T11:03:09;98642.66;;;17.35;50.87
38880;BME280;25887;30.194;-97.880;2023-02-26T11:06:06;98630.53;;;17.35;50.58
38880;BME280;25887;30.194;-97.880;2023-02-26T11:08:34;98631.38;;;17.37;50.97
38880;BME280;25887;30.194;-97.880;2023-02-26T11:11:02;98626.13;;;17.39;50.87
38880;BME280;25887;30.194;-97.880;2023-02-26T11:13:30;98615.75;;;17.39;50.67
38880;BME280;25887;30.194;-97.880;2023-02-26T11:15:57;98618.34;;;17.39;50.79
38880;BME280;25887;30.194;-97.880;2023-02-26T11:18:29;98610.59;;;17.37;50.72
38880;BME280;25887;30.194;-97.880;2023-02-26T11:21:56;98613.25;;;17.34;50.96
38880;BME280;25887;30.194;-97.880;2023-02-26T11:24:07;98609.78;;;17.34;50.97
38880;BME280;25887;30.194;-97.880;2023-02-26T11:26:35;98613.28;;;17.33;50.78
38880;BME280;25887;30.194;-97.880;2023-02-26T11:29:01;98618.53;;;17.31;51.01
38880;BME280;25887;30.194;-97.880;2023-02-26T11:31:27;98619.38;;;17.32;51.01
38880;BME280;25887;30.194;-97.880;2023-02-26T11:34:03;98614.19;;;17.32;50.98
38880;BME280;25887;30.194;-97.880;2023-02-26T11:36:57;98615.88;;;17.33;51.05
38880;BME280;25887;30.194;-97.880;2023-02-26T11:39:39;98618.47;;;17.33;51.17
38880;BME280;25887;30.194;-97.880;2023-02-26T11:42:04;98617.63;;;17.32;51.15
38880;BME280;25887;30.194;-97.880;2023-02-26T11:44:37;98620.19;;;17.34;50.94
38880;BME280;25887;30.194;-97.880;2023-02-26T11:47:05;98619.28;;;17.35;51.12
38880;BME280;25887;30.194;-97.880;2023-02-26T11:49:32;98615.84;;;17.36;51.11
38880;BME280;25887;30.194;-97.880;2023-02-26T11:54:48;98605.53;;;17.31;50.98
38880;BME280;25887;30.194;-97.880;2023-02-26T11:57:15;98600.34;;;17.31;51.18
38880;BME280;25887;30.194;-97.880;2023-02-26T11:59:42;98597.75;;;17.31;51.14
38880;BME280;25887;30.194;-97.880;2023-02-26T12:02:10;98597.75;;;17.31;51.22
38880;BME280;25887;30.194;-97.880;2023-02-26T12:04:39;98594.34;;;17.29;51.24
38880;BME280;25887;30.194;-97.880;2023-02-26T12:07:07;98596.94;;;17.29;51.44
38880;BME280;25887;30.194;-97.880;2023-02-26T12:09:37;98602.09;;;17.31;51.50
38880;BME280;25887;30.194;-97.880;2023-02-26T12:20:10;98593.50;;;17.27;51.57
38880;BME280;25887;30.194;-97.880;2023-02-26T12:44:19;98584.91;;;17.25;51.51
38880;BME280;25887;30.194;-97.880;2023-02-26T12:46:51;98585.75;;;17.25;51.54
38880;BME280;25887;30.194;-97.880;2023-02-26T12:49:27;98582.25;;;17.26;51.65
38880;BME280;25887;30.194;-97.880;2023-02-26T13:08:35;98600.38;;;17.30;51.81
38880;BME280;25887;30.194;-97.880;2023-02-26T13:13:52;98597.78;;;17.30;51.79
38880;BME280;25887;30.194;-97.880;2023-02-26T13:16:29;98609.88;;;17.31;51.88
38880;BME280;25887;30.194;-97.880;2023-02-26T13:21:44;98606.38;;;17.32;51.89
38880;BME280;25887;30.194;-97.880;2023-02-26T13:24:23;98615.00;;;17.34;51.82
38880;BME280;25887;30.194;-97.880;2023-02-26T13:26:52;98612.38;;;17.34;51.80
38880;BME280;25887;30.194;-97.880;2023-02-26T13:29:22;98611.50;;;17.35;51.74
38880;BME280;25887;30.194;-97.880;2023-02-26T13:34:22;98614.94;;;17.37;51.99
38880;BME280;25887;30.194;-97.880;2023-02-26T13:36:50;98613.19;;;17.37;51.99
38880;BME280;25887;30.194;-97.880;2023-02-26T13:44:29;98601.06;;;17.38;52.11
38880;BME280;25887;30.194;-97.880;2023-02-26T13:49:33;98624.44;;;17.38;52.08
38880;BME280;25887;30.194;-97.880;2023-02-26T13:52:03;98623.53;;;17.39;52.00
38880;BME280;25887;30.194;-97.880;2023-02-26T13:59:47;98619.97;;;17.43;52.11
38880;BME280;25887;30.194;-97.880;2023-02-26T14:04:52;98618.22;;;17.45;52.11
38880;BME280;25887;30.194;-97.880;2023-02-26T14:07:46;98630.28;;;17.46;52.25
38880;BME280;25887;30.194;-97.880;2023-02-26T14:10:17;98640.59;;;17.49;52.32
38880;BME280;25887;30.194;-97.880;2023-02-26T14:13:00;98639.72;;;17.50;52.18
38880;BME280;25887;30.194;-97.880;2023-02-26T14:15:39;98642.28;;;17.51;52.23
38880;BME280;25887;30.194;-97.880;2023-02-26T14:18:18;98650.03;;;17.53;52.39
38880;BME280;25887;30.194;-97.880;2023-02-26T14:20:44;98651.72;;;17.55;52.38
38880;BME280;25887;30.194;-97.880;2023-02-26T14:23:31;98656.81;;;17.59;52.36
38880;BME280;25887;30.194;-97.880;2023-02-26T14:26:04;98641.22;;;17.60;52.34
38880;BME280;25887;30.194;-97.880;2023-02-26T14:29:06;98644.59;;;17.64;52.50
38880;BME280;25887;30.194;-97.880;2023-02-26T14:39:49;98641.78;;;17.74;52.36
38880;BME280;25887;30.194;-97.880;2023-02-26T14:47:33;98622.44;;;17.85;52.50
38880;BME280;25887;30.194;-97.880;2023-02-26T14:50:21;98619.75;;;17.88;52.70
38880;BME280;25887;30.194;-97.880;2023-02-26T14:55:32;98611.81;;;17.94;52.63
38880;BME280;25887;30.194;-97.880;2023-02-26T15:03:51;98587.25;;;18.04;52.83
38880;BME280;25887;30.194;-97.880;2023-02-26T15:11:21;98579.16;;;18.16;53.05
38880;BME280;25887;30.194;-97.880;2023-02-26T15:14:00;98576.38;;;18.22;53.03
38880;BME280;25887;30.194;-97.880;2023-02-26T15:16:34;98566.66;;;18.29;53.53
38880;BME280;25887;30.194;-97.880;2023-02-26T15:22:02;98570.75;;;18.37;53.72
38880;BME280;25887;30.194;-97.880;2023-02-26T15:24:32;98570.56;;;18.44;53.78
38880;BME280;25887;30.194;-97.880;2023-02-26T15:26:59;98585.94;;;18.51;53.62
38880;BME280;25887;30.194;-97.880;2023-02-26T15:29:31;98582.25;;;18.60;53.64
38880;BME280;25887;30.194;-97.880;2023-02-26T15:32:13;98579.41;;;18.69;53.94
38880;BME280;25887;30.194;-97.880;2023-02-26T15:34:45;98577.31;;;18.80;54.37
38880;BME280;25887;30.194;-97.880;2023-02-26T15:37:29;98575.28;;;18.91;54.36
38880;BME280;25887;30.194;-97.880;2023-02-26T15:40:03;98574.94;;;19.02;54.40
38880;BME280;25887;30.194;-97.880;2023-02-26T15:42:30;98559.84;;;19.12;54.57
38880;BME280;25887;30.194;-97.880;2023-02-26T15:44:58;98559.53;;;19.23;55.12
38880;BME280;25887;30.194;-97.880;2023-02-26T15:47:26;98550.56;;;19.31;56.02
38880;BME280;25887;30.194;-97.880;2023-02-26T15:49:52;98538.16;;;19.39;56.17
38880;BME280;25887;30.194;-97.880;2023-02-26T15:52:20;98530.94;;;19.47;56.41
38880;BME280;25887;30.194;-97.880;2023-02-26T15:54:48;98522.81;;;19.57;56.67
38880;BME280;25887;30.194;-97.880;2023-02-26T15:57:15;98521.72;;;19.64;57.02
38880;BME280;25887;30.194;-97.880;2023-02-26T15:59:42;98525.03;;;19.69;57.27
38880;BME280;25887;30.194;-97.880;2023-02-26T16:02:12;98521.38;;;19.73;57.26
38880;BME280;25887;30.194;-97.880;2023-02-26T16:04:38;98521.97;;;19.81;57.41
38880;BME280;25887;30.194;-97.880;2023-02-26T16:07:05;98507.75;;;19.90;57.38
38880;BME280;25887;30.194;-97.880;2023-02-26T16:09:34;98506.47;;;20.01;57.59
38880;BME280;25887;30.194;-97.880;2023-02-26T16:12:19;98507.63;;;20.18;58.25